Terminal Aerodrome Forecast
Issued by NWS Tampa Bay Area, FL

Home | Current Version | Previous Version | Text Only | Print | Product List | Glossary On
Versions: 1 2 3 4 5 6 7 8 9 10 11 12 13 14 15 16 17 18 19 20
000
FTUS42 KTBW 281700
TAFFMY
TAF
KFMY 281720Z 2818/2918 17008KT P6SM SCT030
     FM282000 21006KT P6SM SCT035
     FM290000 VRB03KT P6SM FEW035
     FM290800 VRB03KT 4SM BR SCT005
     FM291500 17006KT P6SM SCT020 SCT250=

USA.gov is the U.S. government's official web portal to all federal, state and local government web resources and services.